KLVM/LVM METAR and TAF weather

Enter ICAO airport designator
Station Type Date Time Source
KLVM METAR 2021/05/14 11:53 UTC NOAA

KLVM 141153Z AUTO 00000KT 10SM CLR 03/01 A3013 RMK AO2 SLP187 T00280006 10094 20022 50000


Station Type Date Time Source
KLVM Decoded METAR 2021/05/14 11:53 UTC NOAA

LIVINGSTON MISSION FIELD, MT, United States (KLVM) 45-42N 110-26W 1418M
May 14, 2021 - 07:53 AM EDT / 2021.05.14 1153 UTC
Wind: Calm:0
Visibility: 10 mile(s):0
Sky conditions: clear
Temperature: 37.0 F (2.8 C)
Dew Point: 33.1 F (0.6 C)
Relative Humidity: 85%
Pressure (altimeter): 30.13 in. Hg (1020 hPa)
Pressure tendency: 0.00 inches (0.0 hPa) higher than three hours ago
ob: KLVM 141153Z AUTO 00000KT 10SM CLR 03/01 A3013 RMK AO2 SLP187 T00280006 10094 20022 50000
cycle: 12

Station Type Date Time Source
KLVM TAF 2021/05/14 12:22 UTC NOAA

TAF KLVM 141120Z 1412/1512 09012KT P6SM BKN200
FM141700 07010KT P6SM VCTS SCT060CB BKN090
FM150300 09011KT P6SM FEW040 SCT060
FM150600 VRB04KT P6SM SCT015

Example: see airport list